PRIVATE WETTERSTATION BILLIGHEIM-ALLFELD                       ZURCK
Wetterdaten: Dienstag, 28.02.2017
Datum Zeit Temp. A. Temp. A. min Temp. A. max Feuchte A. Luftdruck Regen Wind Richtung Richtung Sonnenschein ET Solar Taupunkt Windchill Windben Empfang
28.02.2017 00:00 7,3 C 7,3 C 7,3 C 89 % 997,1 hPa 0,0 l/m 16,1 km/h (3 Bft) S-SW 202 0 min 0,025 mm 0 W/m 5,6 C 1,4 C 33,8 km/h (5 Bft) 100 %
28.02.2017 00:10 7,4 C 7,3 C 7,4 C 88 % 997,1 hPa 0,0 l/m 12,9 km/h (3 Bft) S-SW 202 0 min 0,000 mm 0 W/m 5,5 C 3,0 C 35,4 km/h (5 Bft) 99 %
28.02.2017 00:20 7,6 C 7,4 C 7,6 C 87 % 997,1 hPa 0,0 l/m 16,1 km/h (3 Bft) S-SW 202 0 min 0,000 mm 0 W/m 5,6 C 1,7 C 33,8 km/h (5 Bft) 100 %
28.02.2017 00:30 7,7 C 7,6 C 7,7 C 87 % 996,8 hPa 0,0 l/m 11,3 km/h (2 Bft) S-SW 202 0 min 0,000 mm 0 W/m 5,7 C 4,3 C 27,4 km/h (4 Bft) 100 %
28.02.2017 00:40 7,7 C 7,7 C 7,8 C 88 % 996,5 hPa 0,2 l/m 14,5 km/h (3 Bft) S-SW 202 0 min 0,000 mm 0 W/m 5,8 C 2,6 C 27,4 km/h (4 Bft) 100 %
28.02.2017 00:50 7,6 C 7,6 C 7,7 C 89 % 996,2 hPa 0,2 l/m 14,5 km/h (3 Bft) S-SW 202 0 min 0,000 mm 0 W/m 5,9 C 2,5 C 27,4 km/h (4 Bft) 100 %
28.02.2017 01:00 7,5 C 7,5 C 7,6 C 89 % 996,1 hPa 0,2 l/m 16,1 km/h (3 Bft) S-SW 202 0 min 0,025 mm 0 W/m 5,8 C 1,6 C 35,4 km/h (5 Bft) 100 %
28.02.2017 01:10 7,3 C 7,3 C 7,5 C 89 % 995,6 hPa 0,4 l/m 14,5 km/h (3 Bft) S-SW 202 0 min 0,000 mm 0 W/m 5,6 C 2,1 C 32,2 km/h (5 Bft) 100 %
28.02.2017 01:20 7,2 C 7,2 C 7,3 C 89 % 995,5 hPa 0,0 l/m 14,5 km/h (3 Bft) S-SW 202 0 min 0,000 mm 0 W/m 5,5 C 2,0 C 35,4 km/h (5 Bft) 100 %
28.02.2017 01:30 7,0 C 7,0 C 7,2 C 90 % 995,6 hPa 0,4 l/m 16,1 km/h (3 Bft) S-SW 202 0 min 0,000 mm 0 W/m 5,5 C 1,0 C 32,2 km/h (5 Bft) 99 %
28.02.2017 01:40 6,9 C 6,9 C 7,0 C 90 % 995,6 hPa 0,0 l/m 19,3 km/h (3 Bft) S-SW 202 0 min 0,000 mm 0 W/m 5,4 C -0,5 C 38,6 km/h (5 Bft) 100 %
28.02.2017 01:50 6,8 C 6,8 C 6,9 C 90 % 996,0 hPa 0,4 l/m 17,7 km/h (3 Bft) SW 225 0 min 0,000 mm 0 W/m 5,3 C 0,1 C 33,8 km/h (5 Bft) 100 %
28.02.2017 02:00 6,3 C 6,3 C 6,8 C 88 % 996,9 hPa 0,6 l/m 24,1 km/h (4 Bft) W 270 0 min 0,025 mm 0 W/m 4,5 C -2,9 C 41,8 km/h (6 Bft) 100 %
28.02.2017 02:10 5,8 C 5,8 C 6,2 C 89 % 997,0 hPa 0,6 l/m 14,5 km/h (3 Bft) W 270 0 min 0,000 mm 0 W/m 4,1 C 0,3 C 33,8 km/h (5 Bft) 100 %
28.02.2017 02:20 5,5 C 5,5 C 5,8 C 90 % 997,0 hPa 0,8 l/m 14,5 km/h (3 Bft) W-SW 247 0 min 0,000 mm 0 W/m 4,0 C -0,1 C 35,4 km/h (5 Bft) 100 %
28.02.2017 02:30 5,1 C 5,1 C 5,5 C 90 % 997,5 hPa 0,6 l/m 16,1 km/h (3 Bft) W 270 0 min 0,000 mm 0 W/m 3,6 C -1,3 C 37,0 km/h (5 Bft) 100 %
28.02.2017 02:40 4,6 C 4,6 C 5,1 C 90 % 998,0 hPa 0,4 l/m 16,1 km/h (3 Bft) W-SW 247 0 min 0,000 mm 0 W/m 3,1 C -2,0 C 33,8 km/h (5 Bft) 100 %
28.02.2017 02:50 4,2 C 4,2 C 4,6 C 90 % 997,9 hPa 0,2 l/m 16,1 km/h (3 Bft) W-SW 247 0 min 0,000 mm 0 W/m 2,7 C -2,5 C 32,2 km/h (5 Bft) 100 %
28.02.2017 03:00 3,8 C 3,8 C 4,1 C 90 % 997,7 hPa 0,4 l/m 8,0 km/h (2 Bft) W-SW 247 0 min 0,025 mm 0 W/m 2,3 C 2,3 C 29,0 km/h (5 Bft) 99 %
28.02.2017 03:10 3,6 C 3,6 C 3,8 C 91 % 997,9 hPa 0,6 l/m 11,3 km/h (2 Bft) SW 225 0 min 0,000 mm 0 W/m 2,3 C -0,4 C 32,2 km/h (5 Bft) 100 %
28.02.2017 03:20 3,2 C 3,2 C 3,6 C 91 % 998,0 hPa 0,4 l/m 12,9 km/h (3 Bft) SW 225 0 min 0,000 mm 0 W/m 1,9 C -1,9 C 30,6 km/h (5 Bft) 100 %
28.02.2017 03:30 2,9 C 2,9 C 3,2 C 91 % 997,9 hPa 0,4 l/m 14,5 km/h (3 Bft) SW 225 0 min 0,000 mm 0 W/m 1,6 C -3,2 C 30,6 km/h (5 Bft) 100 %
28.02.2017 03:40 2,7 C 2,7 C 2,9 C 91 % 997,7 hPa 0,4 l/m 16,1 km/h (3 Bft) S-SW 202 0 min 0,000 mm 0 W/m 1,4 C -4,3 C 32,2 km/h (5 Bft) 100 %
28.02.2017 03:50 2,3 C 2,3 C 2,7 C 91 % 997,6 hPa 0,4 l/m 16,1 km/h (3 Bft) S-SW 202 0 min 0,000 mm 0 W/m 1,0 C -4,8 C 30,6 km/h (5 Bft) 91 %
28.02.2017 04:00 2,2 C 2,2 C 2,3 C 91 % 997,3 hPa 0,0 l/m 9,7 km/h (2 Bft) S-SW 202 0 min 0,000 mm 0 W/m 0,9 C -0,8 C 24,1 km/h (4 Bft) 100 %
28.02.2017 04:10 2,2 C 2,2 C 2,2 C 91 % 997,1 hPa 0,0 l/m 9,7 km/h (2 Bft) S-SW 202 0 min 0,000 mm 0 W/m 0,9 C -0,8 C 22,5 km/h (4 Bft) 100 %
28.02.2017 04:20 2,1 C 2,1 C 2,2 C 91 % 997,1 hPa 0,0 l/m 9,7 km/h (2 Bft) S-SO 157 0 min 0,000 mm 0 W/m 0,8 C -0,9 C 20,9 km/h (4 Bft) 100 %
28.02.2017 04:30 2,1 C 2,1 C 2,1 C 91 % 997,1 hPa 0,0 l/m 3,2 km/h (1 Bft) S 180 0 min 0,000 mm 0 W/m 0,8 C 2,1 C 19,3 km/h (3 Bft) 100 %
28.02.2017 04:40 2,1 C 2,1 C 2,1 C 91 % 997,4 hPa 0,0 l/m 4,8 km/h (1 Bft) S 180 0 min 0,000 mm 0 W/m 0,8 C 2,1 C 19,3 km/h (3 Bft) 100 %
28.02.2017 04:50 2,2 C 2,1 C 2,2 C 91 % 997,5 hPa 0,0 l/m 6,4 km/h (2 Bft) S 180 0 min 0,000 mm 0 W/m 0,9 C 2,2 C 20,9 km/h (4 Bft) 100 %
28.02.2017 05:00 2,2 C 2,1 C 2,2 C 91 % 997,4 hPa 0,0 l/m 8,0 km/h (2 Bft) S-SO 157 0 min 0,000 mm 0 W/m 0,9 C 0,7 C 19,3 km/h (3 Bft) 100 %
28.02.2017 05:10 2,1 C 2,1 C 2,2 C 91 % 997,2 hPa 0,0 l/m 6,4 km/h (2 Bft) S-SO 157 0 min 0,000 mm 0 W/m 0,8 C 2,1 C 16,1 km/h (3 Bft) 100 %
28.02.2017 05:20 2,2 C 2,1 C 2,2 C 91 % 997,1 hPa 0,0 l/m 8,0 km/h (2 Bft) S-SO 157 0 min 0,000 mm 0 W/m 0,9 C 0,7 C 20,9 km/h (4 Bft) 100 %
28.02.2017 05:30 2,2 C 2,2 C 2,2 C 91 % 997,1 hPa 0,0 l/m 6,4 km/h (2 Bft) S-SO 157 0 min 0,000 mm 0 W/m 0,9 C 2,2 C 17,7 km/h (3 Bft) 100 %
28.02.2017 05:40 2,3 C 2,2 C 2,3 C 91 % 997,4 hPa 0,0 l/m 9,7 km/h (2 Bft) S-SO 157 0 min 0,000 mm 0 W/m 1,0 C -0,7 C 22,5 km/h (4 Bft) 100 %
28.02.2017 05:50 2,5 C 2,3 C 2,5 C 91 % 997,4 hPa 0,0 l/m 11,3 km/h (2 Bft) S 180 0 min 0,000 mm 0 W/m 1,2 C -1,6 C 20,9 km/h (4 Bft) 100 %
28.02.2017 06:00 2,6 C 2,4 C 2,6 C 91 % 997,2 hPa 0,0 l/m 9,7 km/h (2 Bft) S-SO 157 0 min 0,000 mm 0 W/m 1,3 C -0,3 C 17,7 km/h (3 Bft) 100 %
28.02.2017 06:10 2,7 C 2,6 C 2,7 C 91 % 997,2 hPa 0,0 l/m 8,0 km/h (2 Bft) S-SO 157 0 min 0,000 mm 0 W/m 1,4 C 1,2 C 19,3 km/h (3 Bft) 100 %
28.02.2017 06:20 2,8 C 2,7 C 2,8 C 91 % 997,3 hPa 0,0 l/m 9,7 km/h (2 Bft) S-SO 157 0 min 0,000 mm 0 W/m 1,5 C -0,1 C 19,3 km/h (3 Bft) 100 %
28.02.2017 06:30 2,9 C 2,8 C 2,9 C 91 % 997,5 hPa 0,0 l/m 9,7 km/h (2 Bft) S-SO 157 0 min 0,000 mm 0 W/m 1,6 C -0,0 C 22,5 km/h (4 Bft) 100 %
28.02.2017 06:40 3,0 C 2,9 C 3,0 C 91 % 997,7 hPa 0,0 l/m 12,9 km/h (3 Bft) S-SO 157 0 min 0,000 mm 0 W/m 1,7 C -2,1 C 22,5 km/h (4 Bft) 100 %
28.02.2017 06:50 3,1 C 3,0 C 3,1 C 91 % 997,8 hPa 0,0 l/m 11,3 km/h (2 Bft) S-SO 157 0 min 0,000 mm 0 W/m 1,8 C -1,0 C 24,1 km/h (4 Bft) 100 %
28.02.2017 07:00 3,1 C 3,1 C 3,1 C 91 % 997,8 hPa 0,0 l/m 9,7 km/h (2 Bft) S-SO 157 0 min 0,000 mm 0 W/m 1,8 C 0,2 C 19,3 km/h (3 Bft) 100 %
28.02.2017 07:10 3,1 C 3,1 C 3,1 C 91 % 997,7 hPa 0,0 l/m 9,7 km/h (2 Bft) S-SO 157 0 min 0,000 mm 0 W/m 1,8 C 0,2 C 24,1 km/h (4 Bft) 86 %
28.02.2017 07:20 3,2 C 3,1 C 3,2 C 91 % 997,9 hPa 0,0 l/m 9,7 km/h (2 Bft) S-SO 157 0 min 0,000 mm 0 W/m 1,9 C 0,3 C 24,1 km/h (4 Bft) 100 %
28.02.2017 07:30 3,2 C 3,2 C 3,2 C 91 % 997,4 hPa 0,0 l/m 9,7 km/h (2 Bft) S 180 0 min 0,000 mm 5 W/m 1,9 C 0,3 C 24,1 km/h (4 Bft) 100 %
28.02.2017 07:40 3,3 C 3,2 C 3,3 C 90 % 997,6 hPa 0,0 l/m 12,9 km/h (3 Bft) S-SO 157 0 min 0,000 mm 11 W/m 1,8 C -1,8 C 25,7 km/h (4 Bft) 100 %
28.02.2017 07:50 3,4 C 3,3 C 3,4 C 89 % 998,1 hPa 0,0 l/m 14,5 km/h (3 Bft) S-SO 157 0 min 0,000 mm 14 W/m 1,8 C -2,6 C 27,4 km/h (4 Bft) 100 %
28.02.2017 08:00 3,4 C 3,4 C 3,4 C 89 % 998,2 hPa 0,0 l/m 14,5 km/h (3 Bft) S 180 0 min 0,000 mm 21 W/m 1,8 C -2,6 C 32,2 km/h (5 Bft) 100 %
28.02.2017 08:10 3,4 C 3,4 C 3,4 C 89 % 998,5 hPa 0,0 l/m 12,9 km/h (3 Bft) S 180 0 min 0,000 mm 19 W/m 1,8 C -1,7 C 29,0 km/h (5 Bft) 100 %
28.02.2017 08:20 3,4 C 3,4 C 3,4 C 89 % 998,7 hPa 0,0 l/m 14,5 km/h (3 Bft) S-SO 157 0 min 0,000 mm 26 W/m 1,8 C -2,6 C 32,2 km/h (5 Bft) 100 %
28.02.2017 08:30 3,4 C 3,4 C 3,4 C 89 % 998,8 hPa 0,0 l/m 12,9 km/h (3 Bft) S-SO 157 0 min 0,000 mm 44 W/m 1,8 C -1,7 C 25,7 km/h (4 Bft) 100 %
28.02.2017 08:40 3,4 C 3,4 C 3,4 C 89 % 998,7 hPa 0,0 l/m 12,9 km/h (3 Bft) S 180 0 min 0,000 mm 70 W/m 1,8 C -1,7 C 30,6 km/h (5 Bft) 100 %
28.02.2017 08:50 3,5 C 3,4 C 3,5 C 89 % 998,7 hPa 0,0 l/m 11,3 km/h (2 Bft) S 180 0 min 0,000 mm 83 W/m 1,9 C -0,5 C 22,5 km/h (4 Bft) 100 %
28.02.2017 09:00 3,5 C 3,4 C 3,5 C 89 % 998,7 hPa 0,0 l/m 11,3 km/h (2 Bft) S-SO 157 0 min 0,025 mm 88 W/m 1,9 C -0,5 C 22,5 km/h (4 Bft) 90 %
28.02.2017 09:10 3,6 C 3,5 C 3,6 C 88 % 998,5 hPa 0,0 l/m 9,7 km/h (2 Bft) S-SO 157 0 min 0,000 mm 84 W/m 1,8 C 0,8 C 20,9 km/h (4 Bft) 99 %
28.02.2017 09:20 3,6 C 3,6 C 3,6 C 88 % 998,7 hPa 0,0 l/m 9,7 km/h (2 Bft) S-SO 157 0 min 0,000 mm 47 W/m 1,8 C 0,8 C 19,3 km/h (3 Bft) 100 %
28.02.2017 09:30 3,8 C 3,6 C 3,8 C 88 % 998,5 hPa 0,0 l/m 9,7 km/h (2 Bft) S-SO 157 0 min 0,000 mm 139 W/m 2,0 C 1,0 C 20,9 km/h (4 Bft) 99 %
28.02.2017 09:40 4,0 C 3,8 C 4,0 C 87 % 998,5 hPa 0,0 l/m 9,7 km/h (2 Bft) S-SO 157 0 min 0,000 mm 148 W/m 2,0 C 1,2 C 24,1 km/h (4 Bft) 100 %
28.02.2017 09:50 4,4 C 4,0 C 4,4 C 87 % 998,4 hPa 0,0 l/m 12,9 km/h (3 Bft) S 180 10 min 0,000 mm 244 W/m 2,4 C -0,5 C 24,1 km/h (4 Bft) 100 %
28.02.2017 10:00 5,1 C 4,4 C 5,1 C 85 % 998,1 hPa 0,0 l/m 11,3 km/h (2 Bft) S-SW 202 10 min 0,076 mm 410 W/m 2,8 C 1,3 C 29,0 km/h (5 Bft) 100 %
28.02.2017 10:10 5,6 C 5,1 C 5,6 C 83 % 997,8 hPa 0,0 l/m 11,3 km/h (2 Bft) S-SO 157 10 min 0,000 mm 452 W/m 2,9 C 1,9 C 22,5 km/h (4 Bft) 100 %
28.02.2017 10:20 5,7 C 5,6 C 5,8 C 80 % 998,0 hPa 0,0 l/m 16,1 km/h (3 Bft) S 180 10 min 0,000 mm 462 W/m 2,5 C -0,6 C 32,2 km/h (5 Bft) 100 %
28.02.2017 10:30 5,8 C 5,6 C 5,8 C 83 % 997,9 hPa 0,0 l/m 11,3 km/h (2 Bft) S 180 10 min 0,000 mm 404 W/m 3,1 C 2,1 C 24,1 km/h (4 Bft) 100 %
28.02.2017 10:40 6,0 C 5,8 C 6,0 C 81 % 997,5 hPa 0,0 l/m 12,9 km/h (3 Bft) S 180 10 min 0,000 mm 316 W/m 3,0 C 1,4 C 25,7 km/h (4 Bft) 100 %
28.02.2017 10:50 6,2 C 6,0 C 6,2 C 82 % 997,2 hPa 0,0 l/m 14,5 km/h (3 Bft) S 180 10 min 0,000 mm 599 W/m 3,4 C 0,8 C 29,0 km/h (5 Bft) 100 %
28.02.2017 11:00 6,3 C 6,2 C 6,4 C 80 % 997,1 hPa 0,0 l/m 12,9 km/h (3 Bft) S 180 10 min 0,152 mm 378 W/m 3,1 C 1,7 C 27,4 km/h (4 Bft) 100 %
28.02.2017 11:10 6,3 C 6,3 C 6,4 C 79 % 996,7 hPa 0,0 l/m 14,5 km/h (3 Bft) S 180 10 min 0,000 mm 294 W/m 2,9 C 0,9 C 30,6 km/h (5 Bft) 100 %
28.02.2017 11:20 6,5 C 6,3 C 6,5 C 81 % 996,3 hPa 0,0 l/m 12,9 km/h (3 Bft) S-SW 202 10 min 0,000 mm 265 W/m 3,5 C 2,0 C 25,7 km/h (4 Bft) 100 %
28.02.2017 11:30 6,6 C 6,5 C 6,6 C 78 % 996,4 hPa 0,0 l/m 11,3 km/h (2 Bft) S 180 10 min 0,000 mm 367 W/m 3,0 C 3,0 C 27,4 km/h (4 Bft) 100 %
28.02.2017 11:40 6,6 C 6,6 C 6,6 C 78 % 996,7 hPa 0,0 l/m 12,9 km/h (3 Bft) S 180 10 min 0,000 mm 243 W/m 3,0 C 2,1 C 27,4 km/h (4 Bft) 100 %
28.02.2017 11:50 6,4 C 6,4 C 6,5 C 79 % 996,4 hPa 0,0 l/m 11,3 km/h (2 Bft) S-SW 202 10 min 0,000 mm 274 W/m 3,0 C 2,8 C 19,3 km/h (3 Bft) 100 %
28.02.2017 12:00 6,3 C 6,3 C 6,4 C 78 % 995,9 hPa 0,0 l/m 14,5 km/h (3 Bft) S-SO 157 10 min 0,127 mm 336 W/m 2,8 C 0,9 C 30,6 km/h (5 Bft) 100 %
28.02.2017 12:20 6,6 C 6,3 C 6,6 C 78 % 995,6 hPa 0,0 l/m 17,6 km/h (3 Bft) SO 146 20 min 0,000 mm 376 W/m 3,0 C -0,2 C 30,6 km/h (5 Bft) 100 %
28.02.2017 12:30 6,8 C 6,6 C 6,8 C 77 % 995,3 hPa 0,0 l/m 12,0 km/h (2 Bft) S 190 10 min 0,000 mm 269 W/m 3,1 C 2,8 C 24,1 km/h (4 Bft) 100 %
28.02.2017 12:40 7,1 C 6,8 C 7,1 C 75 % 995,1 hPa 0,0 l/m 11,8 km/h (2 Bft) S-SO 153 10 min 0,000 mm 508 W/m 3,0 C 3,3 C 27,4 km/h (4 Bft) 100 %
28.02.2017 12:50 7,3 C 7,1 C 7,3 C 74 % 994,7 hPa 0,0 l/m 11,3 km/h (2 Bft) S-SW 207 10 min 0,000 mm 225 W/m 3,0 C 3,8 C 25,7 km/h (4 Bft) 100 %
28.02.2017 13:00 7,3 C 7,3 C 7,3 C 73 % 994,6 hPa 0,0 l/m 12,1 km/h (2 Bft) S 176 10 min 0,130 mm 169 W/m 2,8 C 3,3 C 30,6 km/h (5 Bft) 100 %
28.02.2017 13:10 7,1 C 7,1 C 7,3 C 72 % 993,9 hPa 0,0 l/m 13,3 km/h (3 Bft) S-SO 151 10 min 0,000 mm 183 W/m 2,4 C 2,5 C 29,0 km/h (5 Bft) 100 %
28.02.2017 13:20 6,9 C 6,9 C 7,1 C 72 % 993,8 hPa 0,0 l/m 10,4 km/h (2 Bft) S-SW 205 0 min 0,000 mm 63 W/m 2,2 C 3,9 C 20,9 km/h (4 Bft) 100 %
28.02.2017 13:30 6,8 C 6,8 C 6,9 C 73 % 993,7 hPa 0,0 l/m 11,5 km/h (2 Bft) S 190 0 min 0,000 mm 134 W/m 2,3 C 3,1 C 20,9 km/h (4 Bft) 100 %
28.02.2017 13:40 6,7 C 6,7 C 6,8 C 73 % 993,6 hPa 0,0 l/m 9,4 km/h (2 Bft) S 191 0 min 0,000 mm 100 W/m 2,2 C 4,4 C 25,7 km/h (4 Bft) 100 %
28.02.2017 13:50 6,6 C 6,6 C 6,7 C 77 % 993,5 hPa 0,0 l/m 9,2 km/h (2 Bft) S-SO 148 0 min 0,000 mm 79 W/m 2,9 C 4,4 C 17,7 km/h (3 Bft) 100 %
28.02.2017 14:00 6,2 C 6,2 C 6,6 C 80 % 993,6 hPa 0,0 l/m 10,5 km/h (2 Bft) S 188 0 min 0,076 mm 77 W/m 3,0 C 3,1 C 29,0 km/h (5 Bft) 100 %
28.02.2017 14:10 5,9 C 5,9 C 6,2 C 83 % 993,0 hPa 0,0 l/m 11,2 km/h (2 Bft) S-SW 194 0 min 0,000 mm 77 W/m 3,2 C 2,3 C 27,4 km/h (4 Bft) 100 %
28.02.2017 14:20 5,7 C 5,7 C 5,9 C 84 % 992,9 hPa 0,2 l/m 8,6 km/h (2 Bft) S-SO 168 0 min 0,000 mm 46 W/m 3,2 C 3,9 C 17,7 km/h (3 Bft) 100 %
28.02.2017 14:30 5,3 C 5,3 C 5,7 C 86 % 992,9 hPa 0,2 l/m 8,5 km/h (2 Bft) S 171 0 min 0,000 mm 39 W/m 3,2 C 3,5 C 20,9 km/h (4 Bft) 100 %
28.02.2017 14:40 5,1 C 5,1 C 5,3 C 88 % 992,9 hPa 0,2 l/m 9,0 km/h (2 Bft) S-SO 153 0 min 0,000 mm 28 W/m 3,3 C 2,9 C 22,5 km/h (4 Bft) 100 %
28.02.2017 14:50 4,8 C 4,8 C 5,1 C 89 % 992,5 hPa 0,4 l/m 6,2 km/h (2 Bft) S-SW 207 0 min 0,000 mm 53 W/m 3,1 C 4,8 C 16,1 km/h (3 Bft) 100 %
28.02.2017 15:00 4,7 C 4,7 C 4,8 C 90 % 992,6 hPa 0,0 l/m 4,1 km/h (1 Bft) S-SW 203 0 min 0,000 mm 26 W/m 3,2 C 4,7 C 14,5 km/h (3 Bft) 100 %
28.02.2017 15:10 4,6 C 4,6 C 4,7 C 90 % 992,7 hPa 0,2 l/m 0,1 km/h (0 Bft) SW 225 0 min 0,025 mm 33 W/m 3,1 C 4,6 C 4,8 km/h (1 Bft) 100 %
28.02.2017 15:20 4,6 C 4,6 C 4,7 C 91 % 992,7 hPa 0,4 l/m 0,2 km/h (0 Bft) S-SO 147 0 min 0,000 mm 26 W/m 3,3 C 4,6 C 6,4 km/h (2 Bft) 100 %
28.02.2017 15:30 4,5 C 4,5 C 4,6 C 91 % 992,6 hPa 0,0 l/m 1,0 km/h (0 Bft) S-SO 160 0 min 0,000 mm 25 W/m 3,2 C 4,5 C 6,4 km/h (2 Bft) 100 %
28.02.2017 15:40 4,5 C 4,4 C 4,5 C 91 % 992,8 hPa 0,2 l/m 0,0 km/h (0 Bft) S-SO 165 0 min 0,000 mm 16 W/m 3,2 C 4,5 C 0,0 km/h (0 Bft) 100 %
28.02.2017 15:50 4,5 C 4,5 C 4,5 C 91 % 992,8 hPa 0,4 l/m 0,6 km/h (0 Bft) S-SO 149 0 min 0,000 mm 23 W/m 3,2 C 4,5 C 4,8 km/h (1 Bft) 100 %
28.02.2017 16:00 4,4 C 4,4 C 4,5 C 91 % 992,5 hPa 0,0 l/m 3,7 km/h (1 Bft) S-SO 155 0 min 0,000 mm 25 W/m 3,1 C 4,4 C 6,4 km/h (2 Bft) 100 %
28.02.2017 16:10 4,4 C 4,4 C 4,4 C 91 % 992,3 hPa 0,0 l/m 3,5 km/h (1 Bft) SO 134 0 min 0,000 mm 26 W/m 3,1 C 4,4 C 9,7 km/h (2 Bft) 100 %
28.02.2017 16:20 4,5 C 4,4 C 4,5 C 91 % 992,3 hPa 0,0 l/m 2,4 km/h (1 Bft) S-SO 150 0 min 0,000 mm 26 W/m 3,2 C 4,5 C 8,0 km/h (2 Bft) 100 %
28.02.2017 16:30 4,6 C 4,5 C 4,6 C 91 % 992,7 hPa 0,0 l/m 3,4 km/h (1 Bft) SW 219 0 min 0,000 mm 28 W/m 3,3 C 4,6 C 9,7 km/h (2 Bft) 100 %
28.02.2017 16:40 4,6 C 4,6 C 4,6 C 91 % 992,5 hPa 0,0 l/m 0,5 km/h (0 Bft) O-SO 111 0 min 0,000 mm 21 W/m 3,3 C 4,6 C 8,0 km/h (2 Bft) 100 %
28.02.2017 16:50 4,6 C 4,6 C 4,6 C 91 % 992,7 hPa 0,0 l/m 4,1 km/h (1 Bft) SO 138 0 min 0,000 mm 11 W/m 3,3 C 4,6 C 9,7 km/h (2 Bft) 100 %
28.02.2017 17:00 4,7 C 4,6 C 4,7 C 91 % 992,6 hPa 0,0 l/m 4,8 km/h (1 Bft) S-SO 164 0 min 0,000 mm 11 W/m 3,4 C 4,7 C 11,3 km/h (2 Bft) 100 %
28.02.2017 17:10 4,8 C 4,7 C 4,8 C 91 % 992,5 hPa 0,0 l/m 6,7 km/h (2 Bft) S-SO 167 0 min 0,000 mm 7 W/m 3,5 C 4,6 C 14,5 km/h (3 Bft) 100 %
28.02.2017 17:20 5,0 C 4,8 C 5,0 C 91 % 993,4 hPa 0,0 l/m 10,6 km/h (2 Bft) SO 145 0 min 0,000 mm 5 W/m 3,7 C 1,7 C 20,9 km/h (4 Bft) 100 %
28.02.2017 17:30 5,1 C 5,0 C 5,1 C 91 % 993,3 hPa 0,0 l/m 13,8 km/h (3 Bft) S-SW 202 0 min 0,000 mm 0 W/m 3,8 C -0,2 C 24,1 km/h (4 Bft) 100 %
28.02.2017 17:40 5,1 C 5,1 C 5,1 C 91 % 993,5 hPa 0,0 l/m 10,1 km/h (2 Bft) S 171 0 min 0,000 mm 5 W/m 3,8 C 2,1 C 29,0 km/h (5 Bft) 100 %
28.02.2017 17:50 4,9 C 4,9 C 5,1 C 91 % 993,7 hPa 0,0 l/m 12,9 km/h (3 Bft) S-SW 194 0 min 0,000 mm 0 W/m 3,6 C 0,1 C 24,1 km/h (4 Bft) 100 %
28.02.2017 18:00 4,8 C 4,8 C 4,9 C 91 % 993,8 hPa 0,0 l/m 10,6 km/h (2 Bft) S-SO 159 0 min 0,000 mm 0 W/m 3,5 C 1,4 C 24,1 km/h (4 Bft) 100 %
28.02.2017 18:10 4,7 C 4,7 C 4,8 C 91 % 994,3 hPa 0,0 l/m 11,1 km/h (2 Bft) SW 219 0 min 0,000 mm 0 W/m 3,4 C 1,0 C 24,1 km/h (4 Bft) 100 %
28.02.2017 18:20 4,6 C 4,6 C 4,7 C 92 % 995,0 hPa 0,6 l/m 14,1 km/h (3 Bft) SW 227 0 min 0,000 mm 0 W/m 3,4 C -0,9 C 45,1 km/h (6 Bft) 100 %
28.02.2017 18:30 4,1 C 4,1 C 4,6 C 91 % 995,1 hPa 0,0 l/m 16,5 km/h (3 Bft) W 272 0 min 0,000 mm 0 W/m 2,8 C -2,8 C 40,2 km/h (6 Bft) 100 %
28.02.2017 18:40 4,0 C 4,0 C 4,1 C 91 % 995,1 hPa 0,0 l/m 10,9 km/h (2 Bft) SW 219 0 min 0,000 mm 0 W/m 2,7 C 0,3 C 27,4 km/h (4 Bft) 100 %
28.02.2017 18:50 4,1 C 4,0 C 4,1 C 91 % 995,4 hPa 0,2 l/m 11,3 km/h (2 Bft) SW 226 0 min 0,000 mm 0 W/m 2,8 C 0,2 C 29,0 km/h (5 Bft) 100 %
28.02.2017 19:00 4,1 C 4,1 C 4,1 C 91 % 995,8 hPa 0,0 l/m 15,5 km/h (3 Bft) SW 229 0 min 0,000 mm 0 W/m 2,8 C -2,3 C 29,0 km/h (5 Bft) 100 %
28.02.2017 19:10 4,1 C 4,0 C 4,1 C 91 % 995,8 hPa 0,0 l/m 16,0 km/h (3 Bft) SW 234 0 min 0,000 mm 0 W/m 2,8 C -2,5 C 38,6 km/h (5 Bft) 100 %
28.02.2017 19:20 3,9 C 3,9 C 4,1 C 91 % 996,3 hPa 0,0 l/m 16,6 km/h (3 Bft) SW 217 0 min 0,000 mm 0 W/m 2,6 C -3,1 C 37,0 km/h (5 Bft) 100 %
28.02.2017 19:30 3,8 C 3,8 C 3,9 C 91 % 996,5 hPa 0,0 l/m 16,0 km/h (3 Bft) SW 224 0 min 0,000 mm 0 W/m 2,5 C -2,9 C 29,0 km/h (5 Bft) 100 %
28.02.2017 19:40 3,7 C 3,7 C 3,8 C 91 % 996,5 hPa 0,0 l/m 13,0 km/h (3 Bft) SW 215 0 min 0,000 mm 0 W/m 2,4 C -1,4 C 29,0 km/h (5 Bft) 100 %
28.02.2017 19:50 3,6 C 3,6 C 3,7 C 91 % 996,7 hPa 0,0 l/m 12,5 km/h (3 Bft) W-SW 243 0 min 0,000 mm 0 W/m 2,3 C -1,2 C 33,8 km/h (5 Bft) 100 %
28.02.2017 20:00 3,5 C 3,5 C 3,6 C 90 % 996,9 hPa 0,0 l/m 13,5 km/h (3 Bft) SW 220 0 min 0,000 mm 0 W/m 2,0 C -1,9 C 25,7 km/h (4 Bft) 100 %
28.02.2017 20:10 3,3 C 3,3 C 3,5 C 90 % 996,9 hPa 0,0 l/m 7,4 km/h (2 Bft) SW 229 0 min 0,000 mm 0 W/m 1,8 C 2,4 C 17,7 km/h (3 Bft) 100 %
28.02.2017 20:20 3,2 C 3,2 C 3,3 C 90 % 997,3 hPa 0,0 l/m 8,0 km/h (2 Bft) SW 223 0 min 0,000 mm 0 W/m 1,7 C 1,7 C 17,7 km/h (3 Bft) 100 %
28.02.2017 20:31 3,2 C 3,2 C 3,2 C 90 % 997,4 hPa 0,0 l/m 5,0 km/h (1 Bft) SW 223 0 min 0,000 mm 0 W/m 1,7 C 3,2 C 17,7 km/h (3 Bft) 100 %
28.02.2017 20:40 3,2 C 3,2 C 3,2 C 91 % 997,7 hPa 0,0 l/m 8,0 km/h (2 Bft) SW 229 0 min 0,000 mm 0 W/m 1,9 C 1,7 C 17,7 km/h (3 Bft) 100 %
28.02.2017 20:50 3,3 C 3,2 C 3,3 C 91 % 997,9 hPa 0,0 l/m 9,3 km/h (2 Bft) S 184 0 min 0,000 mm 0 W/m 2,0 C 0,7 C 19,3 km/h (3 Bft) 100 %
28.02.2017 21:00 3,4 C 3,3 C 3,4 C 91 % 997,9 hPa 0,0 l/m 10,7 km/h (2 Bft) S-SW 204 0 min 0,000 mm 0 W/m 2,1 C -0,2 C 19,3 km/h (3 Bft) 100 %
28.02.2017 21:10 3,4 C 3,4 C 3,4 C 91 % 998,4 hPa 0,0 l/m 9,7 km/h (2 Bft) S-SW 202 0 min 0,000 mm 0 W/m 2,1 C 0,5 C 17,7 km/h (3 Bft) 100 %
28.02.2017 21:20 3,4 C 3,4 C 3,4 C 91 % 998,6 hPa 0,0 l/m 9,7 km/h (2 Bft) SW 225 0 min 0,000 mm 0 W/m 2,1 C 0,5 C 24,1 km/h (4 Bft) 100 %
28.02.2017 21:30 3,4 C 3,4 C 3,4 C 91 % 998,7 hPa 0,0 l/m 6,4 km/h (2 Bft) SW 225 0 min 0,000 mm 0 W/m 2,1 C 3,4 C 16,1 km/h (3 Bft) 100 %
28.02.2017 21:40 3,6 C 3,4 C 3,6 C 91 % 999,0 hPa 0,0 l/m 11,3 km/h (2 Bft) SW 225 0 min 0,000 mm 0 W/m 2,3 C -0,4 C 24,1 km/h (4 Bft) 87 %
28.02.2017 21:50 3,6 C 3,6 C 3,6 C 91 % 999,1 hPa 0,0 l/m 11,3 km/h (2 Bft) SW 225 0 min 0,000 mm 0 W/m 2,3 C -0,4 C 30,6 km/h (5 Bft) 100 %
28.02.2017 22:00 3,7 C 3,6 C 3,7 C 90 % 999,4 hPa 0,0 l/m 11,3 km/h (2 Bft) W-SW 247 0 min 0,000 mm 0 W/m 2,2 C -0,3 C 33,8 km/h (5 Bft) 100 %
28.02.2017 22:10 3,7 C 3,7 C 3,7 C 89 % 999,5 hPa 0,0 l/m 11,3 km/h (2 Bft) W-SW 247 0 min 0,000 mm 0 W/m 2,1 C -0,3 C 35,4 km/h (5 Bft) 100 %
28.02.2017 22:20 3,7 C 3,7 C 3,7 C 90 % 999,6 hPa 0,0 l/m 9,7 km/h (2 Bft) W-SW 247 0 min 0,000 mm 0 W/m 2,2 C 0,9 C 29,0 km/h (5 Bft) 100 %
28.02.2017 22:30 3,7 C 3,7 C 3,7 C 90 % 999,9 hPa 0,0 l/m 9,7 km/h (2 Bft) W-SW 247 0 min 0,000 mm 0 W/m 2,2 C 0,9 C 29,0 km/h (5 Bft) 100 %
28.02.2017 22:40 3,7 C 3,7 C 3,7 C 90 % 999,9 hPa 0,0 l/m 11,3 km/h (2 Bft) SW 225 0 min 0,000 mm 0 W/m 2,2 C -0,3 C 24,1 km/h (4 Bft) 98 %
28.02.2017 22:50 3,7 C 3,7 C 3,7 C 90 % 1000,0 hPa 0,0 l/m 11,3 km/h (2 Bft) SW 225 0 min 0,000 mm 0 W/m 2,2 C -0,3 C 30,6 km/h (5 Bft) 97 %
28.02.2017 23:00 3,6 C 3,6 C 3,7 C 90 % 1000,0 hPa 0,0 l/m 14,5 km/h (3 Bft) SW 225 0 min 0,000 mm 0 W/m 2,1 C -2,3 C 32,2 km/h (5 Bft) 98 %
28.02.2017 23:10 3,6 C 3,5 C 3,6 C 90 % 1000,2 hPa 0,0 l/m 12,9 km/h (3 Bft) SW 225 0 min 0,000 mm 0 W/m 2,1 C -1,4 C 25,7 km/h (4 Bft) 97 %
28.02.2017 23:20 3,4 C 3,4 C 3,6 C 89 % 1000,4 hPa 0,0 l/m 12,9 km/h (3 Bft) SW 225 0 min 0,000 mm 0 W/m 1,8 C -1,7 C 33,8 km/h (5 Bft) 97 %
28.02.2017 23:30 3,3 C 3,3 C 3,4 C 89 % 1000,5 hPa 0,0 l/m 16,1 km/h (3 Bft) W-SW 247 0 min 0,000 mm 0 W/m 1,7 C -3,6 C 35,4 km/h (5 Bft) 88 %
28.02.2017 23:40 3,2 C 3,2 C 3,3 C 89 % 1000,7 hPa 0,0 l/m 14,5 km/h (3 Bft) W-SW 247 0 min 0,000 mm 0 W/m 1,6 C -2,8 C 35,4 km/h (5 Bft) 97 %
28.02.2017 23:50 3,1 C 3,1 C 3,2 C 89 % 1000,8 hPa 0,0 l/m 11,3 km/h (2 Bft) W-SW 247 0 min 0,000 mm 0 W/m 1,5 C -1,0 C 24,1 km/h (4 Bft) 98 %
_ Min-Zeit 04:20 04:20 04:30 13:10 16:10 - 15:40 - - - - - 04:20 03:50 15:40 07:10
Minimum _ 2,1 C 2,1 C 2,1 C 72 % 992,3 hPa - 0,0 km/h (0 Bft) - - - - - 0,8 C -4,8 C 0,0 km/h (0 Bft) 86 %
_ Max-Zeit 00:40 00:40 00:40 18:20 23:50 02:20 02:00 - - 12:20 11:00 10:50 00:50 14:50 18:20 00:00
Maximum _ 7,8 C 7,7 C 7,8 C 92 % 1000,8 hPa 0,8 l/m 24,1 km/h
W (4 Bft)
- - 20 min 0,152 mm 599 W/m 5,9 C 4,8 C 45,1 km/h
W-SW (6 Bft)
100 %
Durchschnitt _ 4,5 C 4,4 C 4,6 C 88 % 996,5 hPa #10,6 l/m 11,0 km/h (2 Bft) S-SO - #3:30 h #0,711 mm 143 W/m 2,7 C 0,8 C 24,9 km/h (4 Bft) 99 %
PRIVATE WETTERSTATION BILLIGHEIM-ALLFELD - www.neckar-odenwald-wetter.de - Holger Sonntag